Time;durP1;ratioP1;P1;durP2;ratioP2;P2;SDS_P1;SDS_P2;PMS_P1;PMS_P2;Temp;Humidity;BMP_temperature;BMP_pressure;BME280_temperature;BME280_humidity;BME280_pressure;Samples;Min_cycle;Max_cycle;Signal;HPM_P1;HPM_P2
2022/04/06 00:02:06;;;;;;;0.10;0.10;;;8.80;1.00;12.80;88045.00;;;;5012976;28;20204;-69
2022/04/06 00:04:34;;;;;;;0.10;0.10;;;8.90;1.00;12.80;88045.00;;;;4993181;28;20220;-69
2022/04/06 00:07:03;;;;;;;0.10;0.10;;;8.90;1.00;12.80;88045.00;;;;4979393;28;20635;-70
2022/04/06 00:09:31;;;;;;;0.10;0.10;;;8.90;1.00;12.80;88045.00;;;;4973974;28;20204;-69
2022/04/06 00:12:00;;;;;;;0.10;0.10;;;8.90;1.00;12.80;88045.00;;;;4973772;28;20201;-68
2022/04/06 00:14:28;;;;;;;0.10;0.10;;;8.90;1.00;12.80;88045.00;;;;4973291;28;20224;-71
2022/04/06 00:17:02;;;;;;;0.10;0.10;;;8.80;1.00;12.80;88045.00;;;;4989786;28;20199;-68
2022/04/06 00:19:31;;;;;;;0.10;0.10;;;8.90;1.00;12.80;88045.00;;;;4977308;28;20548;-69
2022/04/06 00:21:59;;;;;;;0.10;0.10;;;8.90;1.00;12.80;88045.00;;;;4993553;28;20200;-68
2022/04/06 00:24:27;;;;;;;0.10;0.10;;;8.90;1.00;12.80;88045.00;;;;4983720;28;20568;-69
2022/04/06 00:26:55;;;;;;;0.10;0.10;;;8.90;1.00;12.80;88045.00;;;;4976514;28;20220;-69
2022/04/06 00:29:25;;;;;;;0.10;0.10;;;8.90;1.00;12.80;88045.00;;;;4976593;28;20942;-70
2022/04/06 00:31:53;;;;;;;0.10;0.10;;;8.90;1.00;12.80;88045.00;;;;5006545;28;20257;-69
2022/04/06 00:35:28;;;;;;;0.10;0.10;;;8.90;1.00;12.80;88045.00;;;;5015418;28;20195;-69
2022/04/06 00:37:09;;;;;;;0.10;0.10;;;8.90;1.00;12.80;88045.00;;;;5015232;28;20196;-69
2022/04/06 00:39:37;;;;;;;0.10;0.10;;;8.90;1.00;12.80;88045.00;;;;5014263;28;20241;-70
2022/04/06 00:42:07;;;;;;;0.10;0.10;;;8.90;1.00;12.80;88045.00;;;;5016687;28;20262;-70
2022/04/06 00:44:37;;;;;;;0.10;0.10;;;8.90;1.00;12.80;88045.00;;;;5013345;28;20196;-71
2022/04/06 00:47:07;;;;;;;0.10;0.10;;;8.90;1.00;12.80;88045.00;;;;5003636;28;20211;-70
2022/04/06 00:49:36;;;;;;;0.10;0.10;;;8.90;1.00;12.80;88045.00;;;;4991713;28;20228;-71
2022/04/06 00:52:07;;;;;;;0.10;0.10;;;8.90;1.00;12.80;88045.00;;;;4992770;28;20594;-71
2022/04/06 00:54:38;;;;;;;0.10;0.10;;;8.90;1.00;12.80;88045.00;;;;4992665;28;20196;-71
2022/04/06 00:57:07;;;;;;;0.10;0.10;;;8.90;1.00;12.80;88045.00;;;;4988828;28;20203;-71
2022/04/06 00:59:37;;;;;;;0.10;0.10;;;8.90;1.00;12.80;88045.00;;;;4992540;28;20196;-71
2022/04/06 01:02:06;;;;;;;0.08;0.08;;;8.90;1.00;12.80;88045.00;;;;5011947;28;20291;-71
2022/04/06 01:04:35;;;;;;;0.10;0.10;;;8.90;1.00;12.80;88045.00;;;;5000149;28;20670;-71
2022/04/06 01:07:03;;;;;;;0.10;0.10;;;8.90;1.00;12.80;88045.00;;;;4991843;28;20196;-71
2022/04/06 01:09:32;;;;;;;0.10;0.10;;;8.90;1.00;12.80;88045.00;;;;4980042;28;20229;-72
2022/04/06 01:12:00;;;;;;;0.10;0.10;;;8.90;1.00;12.80;88045.00;;;;4973826;28;20201;-71
2022/04/06 01:14:28;;;;;;;0.10;0.10;;;8.80;1.00;12.80;88045.00;;;;4983509;28;20207;-71
2022/04/06 01:17:04;;;;;;;0.10;0.10;;;8.80;1.00;12.80;88045.00;;;;5011674;28;20196;-71
2022/04/06 01:19:34;;;;;;;0.10;0.10;;;8.80;1.00;12.80;88045.00;;;;5011655;28;20681;-71
2022/04/06 01:22:07;;;;;;;0.10;0.10;;;8.80;1.00;12.80;88045.00;;;;4995216;28;20262;-71
2022/04/06 01:24:35;;;;;;;0.10;0.10;;;8.80;1.00;12.80;88045.00;;;;4992355;28;20199;-70
2022/04/06 01:27:05;;;;;;;0.10;0.10;;;8.80;1.00;12.80;88045.00;;;;4992020;28;20228;-71
2022/04/06 01:29:34;;;;;;;0.10;0.10;;;8.80;1.00;12.80;88045.00;;;;4992160;28;20243;-70
2022/04/06 01:32:11;;;;;;;0.10;0.10;;;8.80;1.00;12.80;88045.00;;;;4982188;28;20217;-70
2022/04/06 01:34:41;;;;;;;0.10;0.10;;;8.80;1.00;12.80;88045.00;;;;4983663;28;20247;-71
2022/04/06 01:37:13;;;;;;;0.10;0.10;;;8.80;1.00;12.80;88045.00;;;;4978582;28;20201;-71
2022/04/06 01:39:44;;;;;;;0.10;0.10;;;8.80;1.00;12.80;88045.00;;;;4978162;28;20204;-70
2022/04/06 01:42:16;;;;;;;0.10;0.10;;;8.80;1.00;12.80;88045.00;;;;5012312;28;20298;-71
2022/04/06 01:44:45;;;;;;;0.10;0.10;;;8.80;1.00;12.80;88045.00;;;;5007456;28;20204;-70
2022/04/06 01:47:15;;;;;;;0.10;0.10;;;8.80;1.00;12.80;88045.00;;;;4997302;28;20196;-71
2022/04/06 01:52:32;;;;;;;0.10;0.10;;;8.80;1.00;12.80;88045.00;;;;4995350;28;20208;-71
2022/04/06 01:55:02;;;;;;;0.10;0.10;;;8.80;1.00;12.80;88045.00;;;;4994231;28;20192;-71
2022/04/06 01:57:32;;;;;;;0.10;0.10;;;8.80;1.00;12.80;88045.00;;;;5003785;28;20538;-70
2022/04/06 02:00:00;;;;;;;0.03;0.03;;;8.90;1.00;12.80;88045.00;;;;5006798;28;20729;-71
2022/04/06 02:02:31;;;;;;;0.10;0.10;;;8.80;1.00;12.80;88045.00;;;;4995079;28;20243;-71
2022/04/06 02:05:00;;;;;;;0.10;0.10;;;8.80;1.00;12.80;88045.00;;;;4995322;28;20198;-71
2022/04/06 02:07:28;;;;;;;0.00;0.00;;;8.90;1.00;12.80;88045.00;;;;4985192;28;20205;-70
2022/04/06 02:10:00;;;;;;;0.10;0.10;;;8.90;1.00;12.80;88045.00;;;;4976131;28;20225;-70
2022/04/06 02:12:29;;;;;;;0.10;0.10;;;8.90;1.00;12.80;88045.00;;;;5007217;28;20211;-71
2022/04/06 02:14:58;;;;;;;0.10;0.10;;;8.90;1.00;12.80;88045.00;;;;5017517;28;20192;-70
2022/04/06 02:17:28;;;;;;;0.10;0.10;;;8.90;1.00;12.80;88045.00;;;;5016856;28;20196;-70
2022/04/06 02:19:57;;;;;;;0.03;0.03;;;8.90;1.00;12.80;88045.00;;;;5006464;28;20193;-70
2022/04/06 02:22:26;;;;;;;0.10;0.10;;;8.90;1.00;12.80;88045.00;;;;4995431;28;20212;-70
2022/04/06 02:24:54;;;;;;;0.00;0.00;;;8.90;1.00;12.80;88045.00;;;;4995712;28;20665;-70
2022/04/06 02:27:23;;;;;;;0.10;0.10;;;8.90;1.00;12.80;88045.00;;;;5001810;28;20784;-70
2022/04/06 02:29:51;;;;;;;0.10;0.10;;;8.90;1.00;12.80;88045.00;;;;5013665;28;20227;-70
2022/04/06 02:32:19;;;;;;;0.10;0.10;;;8.90;1.00;12.80;88045.00;;;;5016912;28;20211;-70
2022/04/06 02:34:52;;;;;;;0.00;0.00;;;8.90;1.00;12.80;88045.00;;;;4996347;28;20197;-71
2022/04/06 02:37:20;;;;;;;0.03;0.03;;;9.00;1.00;12.80;88045.00;;;;4977507;28;20604;-70
2022/04/06 02:39:49;;;;;;;0.10;0.10;;;8.90;1.00;12.80;88045.00;;;;4979259;28;20584;-70
2022/04/06 02:42:17;;;;;;;0.10;0.10;;;8.90;1.00;12.80;88045.00;;;;5014823;28;20216;-70
2022/04/06 02:44:47;;;;;;;0.10;0.10;;;9.00;1.00;12.80;88045.00;;;;4995649;28;20189;-70
2022/04/06 02:47:15;;;;;;;0.10;0.10;;;9.00;1.00;12.80;88045.00;;;;4994447;28;20204;-70
2022/04/06 02:49:43;;;;;;;0.10;0.10;;;9.00;1.00;12.80;88045.00;;;;4994959;28;20575;-70
2022/04/06 02:52:11;;;;;;;0.10;0.10;;;9.00;1.00;12.80;88045.00;;;;4982939;28;20240;-71
2022/04/06 02:54:39;;;;;;;0.08;0.08;;;9.00;1.00;12.80;88045.00;;;;4977032;28;20205;-70
2022/04/06 02:57:07;;;;;;;0.05;0.05;;;9.00;1.00;12.80;88045.00;;;;4986964;28;20583;-71
2022/04/06 02:59:37;;;;;;;0.10;0.10;;;9.00;1.00;12.80;88045.00;;;;5013738;28;20195;-72
2022/04/06 03:02:07;;;;;;;0.10;0.10;;;9.00;1.00;12.80;88045.00;;;;4999432;28;20577;-71
2022/04/06 03:04:35;;;;;;;0.10;0.10;;;9.00;1.00;12.80;88045.00;;;;4994355;28;20670;-70
2022/04/06 03:07:03;;;;;;;0.10;0.10;;;9.00;1.00;12.80;88045.00;;;;4993495;28;20193;-70
2022/04/06 03:09:31;;;;;;;0.10;0.10;;;9.00;1.00;12.80;88045.00;;;;4994169;28;20628;-70
2022/04/06 03:11:59;;;;;;;0.10;0.10;;;9.00;1.00;12.80;88045.00;;;;4993970;28;20200;-70
2022/04/06 03:14:27;;;;;;;0.10;0.10;;;9.00;1.00;12.80;88045.00;;;;4994340;28;20207;-70
2022/04/06 03:16:55;;;;;;;0.10;0.10;;;9.00;1.00;12.80;88045.00;;;;5012937;28;20199;-69
2022/04/06 03:19:25;;;;;;;0.10;0.10;;;9.00;1.00;12.80;88045.00;;;;5012975;28;20199;-69
2022/04/06 03:21:53;;;;;;;0.10;0.10;;;9.10;1.00;12.80;88045.00;;;;5013296;28;20537;-69
2022/04/06 03:24:21;;;;;;;0.10;0.10;;;9.10;1.00;12.80;88045.00;;;;5008255;28;20262;-69
2022/04/06 03:26:49;;;;;;;0.00;0.00;;;9.10;1.00;12.80;88045.00;;;;4993301;28;20192;-69
2022/04/06 03:29:17;;;;;;;0.00;0.00;;;9.10;1.00;12.80;88045.00;;;;4975819;28;20217;-70
2022/04/06 03:31:45;;;;;;;0.10;0.10;;;9.10;1.00;12.80;88045.00;;;;4973461;28;20201;-70
2022/04/06 03:34:13;;;;;;;0.10;0.10;;;9.10;1.00;12.80;88045.00;;;;4995974;28;20219;-70
2022/04/06 03:36:42;;;;;;;0.10;0.10;;;9.10;1.00;12.80;88045.00;;;;5012635;28;20594;-70
2022/04/06 03:39:10;;;;;;;0.10;0.10;;;9.10;1.00;12.80;88045.00;;;;4994268;28;20200;-70
2022/04/06 03:41:39;;;;;;;0.10;0.10;;;9.10;1.00;12.80;88045.00;;;;5007331;28;20553;-70
2022/04/06 03:44:07;;;;;;;0.10;0.10;;;9.10;1.00;12.80;88045.00;;;;5012489;28;20273;-70
2022/04/06 03:46:35;;;;;;;0.10;0.10;;;9.10;1.00;12.80;88045.00;;;;5008022;28;20200;-70
2022/04/06 03:49:08;;;;;;;0.10;0.10;;;9.10;1.00;12.80;88045.00;;;;4984647;28;20247;-70
2022/04/06 03:51:37;;;;;;;0.10;0.10;;;9.10;1.00;12.80;88045.00;;;;4984949;28;20201;-70
2022/04/06 03:54:07;;;;;;;0.10;0.10;;;9.10;1.00;12.80;88045.00;;;;4978463;28;20746;-70
2022/04/06 03:56:35;;;;;;;0.10;0.10;;;9.20;1.00;12.80;88045.00;;;;4976766;28;20193;-71
2022/04/06 03:59:04;;;;;;;0.10;0.10;;;9.10;1.00;12.80;88045.00;;;;4988518;28;20200;-71
2022/04/06 04:01:35;;;;;;;0.10;0.10;;;9.20;1.00;12.80;88045.00;;;;5010428;28;20192;-71
2022/04/06 04:04:04;;;;;;;0.10;0.10;;;9.10;1.00;12.80;88045.00;;;;4981744;28;20291;-70
2022/04/06 04:06:32;;;;;;;0.10;0.10;;;9.10;1.00;12.80;88045.00;;;;4990105;28;20200;-71
2022/04/06 04:09:00;;;;;;;0.10;0.10;;;9.10;1.00;12.80;88045.00;;;;4992813;28;20200;-71
2022/04/06 04:11:29;;;;;;;0.10;0.10;;;9.10;1.00;12.80;88045.00;;;;4992787;28;20224;-71
2022/04/06 04:13:58;;;;;;;0.10;0.10;;;9.20;1.00;12.80;88045.00;;;;4980760;28;20212;-71
2022/04/06 04:16:26;;;;;;;0.10;0.10;;;9.10;1.00;12.80;88045.00;;;;4998245;28;20199;-71
2022/04/06 04:18:54;;;;;;;0.10;0.10;;;9.10;1.00;12.80;88045.00;;;;4984646;28;20673;-71
2022/04/06 04:21:34;;;;;;;0.10;0.10;;;9.10;1.00;12.80;88045.00;;;;4992866;28;20208;-71
2022/04/06 04:24:08;;;;;;;0.10;0.10;;;9.10;1.00;12.80;88045.00;;;;4992953;28;20219;-71
2022/04/06 04:26:39;;;;;;;0.10;0.10;;;9.10;1.00;12.80;88045.00;;;;4977595;28;20200;-71
2022/04/06 04:29:08;;;;;;;0.10;0.10;;;9.10;1.00;12.80;88045.00;;;;4987944;28;20224;-71
2022/04/06 04:31:37;;;;;;;0.10;0.10;;;9.20;1.00;12.80;88045.00;;;;5000373;28;20235;-71
2022/04/06 04:34:05;;;;;;;0.10;0.10;;;9.20;1.00;12.80;88045.00;;;;4985334;28;20296;-71
2022/04/06 04:36:33;;;;;;;0.10;0.10;;;9.20;1.00;12.80;88045.00;;;;4973313;28;20193;-71
2022/04/06 04:39:02;;;;;;;0.10;0.10;;;9.20;1.00;12.80;88045.00;;;;4981870;28;20204;-71
2022/04/06 04:41:31;;;;;;;0.10;0.10;;;9.20;1.00;12.80;88045.00;;;;4992642;28;20693;-71
2022/04/06 04:44:00;;;;;;;0.00;0.00;;;9.20;1.00;12.80;88045.00;;;;4977284;28;20726;-70
2022/04/06 04:46:28;;;;;;;0.10;0.10;;;9.30;1.00;12.80;88045.00;;;;4985745;28;20205;-71
2022/04/06 04:48:56;;;;;;;0.10;0.10;;;9.30;1.00;12.80;88045.00;;;;4984945;28;20196;-72
2022/04/06 04:51:24;;;;;;;0.10;0.10;;;9.30;1.00;12.80;88045.00;;;;4990534;28;20238;-72
2022/04/06 04:53:52;;;;;;;0.10;0.10;;;9.30;1.00;12.80;88045.00;;;;4981392;28;20240;-71
2022/04/06 04:56:20;;;;;;;0.10;0.10;;;9.30;1.00;12.80;88045.00;;;;4975677;28;20659;-71
2022/04/06 04:58:48;;;;;;;0.10;0.10;;;9.30;1.00;12.80;88045.00;;;;4978669;28;20196;-70
2022/04/06 05:01:18;;;;;;;0.10;0.10;;;9.20;1.00;12.80;88045.00;;;;4992917;28;20204;-71
2022/04/06 05:03:47;;;;;;;0.10;0.10;;;9.20;1.00;12.80;88045.00;;;;4994448;28;20322;-71
2022/04/06 05:06:15;;;;;;;0.10;0.10;;;9.30;1.00;12.80;88045.00;;;;4989237;28;20215;-71
2022/04/06 05:08:43;;;;;;;0.10;0.10;;;9.30;1.00;12.80;88045.00;;;;4984115;28;20271;-71
2022/04/06 05:11:11;;;;;;;0.10;0.10;;;9.30;1.00;12.80;88045.00;;;;4993006;28;20216;-71
2022/04/06 05:13:39;;;;;;;0.10;0.10;;;9.30;1.00;12.80;88045.00;;;;4996335;28;20263;-71
2022/04/06 05:16:08;;;;;;;0.10;0.10;;;9.30;1.00;12.80;88045.00;;;;4990527;28;20565;-71
2022/04/06 05:18:37;;;;;;;0.10;0.10;;;9.30;1.00;12.80;88045.00;;;;4992662;28;20197;-70
2022/04/06 05:21:09;;;;;;;0.10;0.10;;;9.30;1.00;12.80;88045.00;;;;4977918;28;20235;-71
2022/04/06 05:23:37;;;;;;;0.10;0.10;;;9.30;1.00;12.80;88045.00;;;;4976223;28;20272;-70
2022/04/06 05:26:05;;;;;;;0.10;0.10;;;9.30;1.00;12.80;88045.00;;;;4982513;28;20200;-71
2022/04/06 05:28:33;;;;;;;0.10;0.10;;;9.30;1.00;12.80;88045.00;;;;4977640;28;20197;-70
2022/04/06 05:31:01;;;;;;;0.10;0.10;;;9.30;1.00;12.80;88045.00;;;;4995813;28;20220;-70
2022/04/06 05:33:29;;;;;;;0.10;0.10;;;9.30;1.00;12.80;88045.00;;;;4999088;28;20583;-70
2022/04/06 05:35:59;;;;;;;0.10;0.10;;;9.30;1.00;12.80;88045.00;;;;4997929;28;20204;-71
2022/04/06 05:38:26;;;;;;;0.10;0.10;;;9.30;1.00;12.80;88045.00;;;;4996262;28;20196;-71
2022/04/06 05:40:54;;;;;;;0.10;0.10;;;9.30;1.00;12.80;88045.00;;;;4997376;28;20204;-70
2022/04/06 05:43:22;;;;;;;0.10;0.10;;;9.30;1.00;12.80;88045.00;;;;4995498;28;20657;-70
2022/04/06 05:45:51;;;;;;;0.10;0.10;;;9.30;1.00;12.80;88045.00;;;;4996760;28;20559;-70
2022/04/06 05:48:19;;;;;;;0.10;0.10;;;9.30;1.00;12.80;88045.00;;;;4996419;28;20242;-71
2022/04/06 05:50:47;;;;;;;0.10;0.10;;;9.30;1.00;12.80;88045.00;;;;4996807;28;20228;-71
2022/04/06 05:53:16;;;;;;;0.10;0.10;;;9.40;1.00;12.80;88045.00;;;;4995995;28;20259;-70
2022/04/06 05:55:47;;;;;;;0.10;0.10;;;9.40;1.00;12.80;88045.00;;;;4995188;28;20543;-70
2022/04/06 05:58:15;;;;;;;0.10;0.10;;;9.40;1.00;12.80;88045.00;;;;4995427;28;20192;-71
2022/04/06 06:00:44;;;;;;;0.10;0.10;;;9.40;1.00;12.80;88045.00;;;;4995919;28;20698;-71
2022/04/06 06:03:12;;;;;;;0.00;0.00;;;9.40;1.00;12.80;88045.00;;;;4995037;28;20266;-71
2022/04/06 06:05:40;;;;;;;0.10;0.10;;;9.40;1.00;12.80;88045.00;;;;4995660;28;20678;-70
2022/04/06 06:08:19;;;;;;;0.10;0.10;;;9.50;1.00;12.80;88045.00;;;;4996073;28;20188;-70
2022/04/06 06:10:47;;;;;;;0.10;0.10;;;9.50;1.00;12.80;88045.00;;;;4995331;28;20212;-70
2022/04/06 06:13:15;;;;;;;0.10;0.10;;;9.50;1.00;12.80;88045.00;;;;4994930;28;20619;-70
2022/04/06 06:15:43;;;;;;;0.10;0.10;;;9.50;1.00;12.80;88045.00;;;;4994655;28;20191;-70
2022/04/06 06:18:14;;;;;;;0.00;0.00;;;9.50;1.00;12.80;88045.00;;;;4994842;28;20189;-70
2022/04/06 06:20:42;;;;;;;0.10;0.10;;;9.50;1.00;12.80;88045.00;;;;4994763;28;20200;-70
2022/04/06 06:23:10;;;;;;;0.10;0.10;;;9.60;1.00;12.80;88045.00;;;;4994273;28;20220;-70
2022/04/06 06:25:40;;;;;;;0.00;0.00;;;9.50;1.00;12.80;88045.00;;;;4994490;28;20192;-71
2022/04/06 06:28:09;;;;;;;0.10;0.10;;;9.50;1.00;12.80;88045.00;;;;4994741;28;20203;-70
2022/04/06 06:30:37;;;;;;;0.10;0.10;;;9.50;1.00;12.80;88045.00;;;;4994703;28;20203;-70
2022/04/06 06:33:05;;;;;;;0.10;0.10;;;9.50;1.00;12.80;88045.00;;;;4994315;28;20308;-71
2022/04/06 06:35:33;;;;;;;0.10;0.10;;;9.60;1.00;12.80;88045.00;;;;4994903;28;20201;-70
2022/04/06 06:38:01;;;;;;;0.10;0.10;;;9.60;1.00;12.80;88045.00;;;;4994481;28;20212;-70
2022/04/06 06:40:29;;;;;;;0.10;0.10;;;9.60;1.00;12.80;88045.00;;;;4994145;28;20200;-70
2022/04/06 06:42:58;;;;;;;0.00;0.00;;;9.60;1.00;12.80;88045.00;;;;4993569;28;20232;-70
2022/04/06 06:45:26;;;;;;;0.10;0.10;;;9.60;1.00;12.80;88045.00;;;;4992872;28;20216;-70
2022/04/06 06:47:54;;;;;;;0.10;0.10;;;9.60;1.00;12.80;88045.00;;;;4994482;28;20605;-70
2022/04/06 06:50:23;;;;;;;0.10;0.10;;;9.60;1.00;12.80;88045.00;;;;4994441;28;20201;-70
2022/04/06 06:52:51;;;;;;;0.10;0.10;;;9.60;1.00;12.80;88045.00;;;;4979622;28;20240;-70
2022/04/06 06:55:19;;;;;;;0.10;0.10;;;9.70;1.00;12.80;88045.00;;;;4974824;28;20193;-70
2022/04/06 06:57:48;;;;;;;0.10;0.10;;;9.70;1.00;12.80;88045.00;;;;4975887;28;20281;-70
2022/04/06 07:00:19;;;;;;;0.10;0.10;;;9.60;1.00;12.80;88045.00;;;;4975055;28;20220;-70
2022/04/06 07:02:48;;;;;;;0.00;0.00;;;9.60;1.00;12.80;88045.00;;;;4975171;28;20592;-70
2022/04/06 07:05:16;;;;;;;0.10;0.10;;;9.70;1.00;12.80;88045.00;;;;4975560;28;20193;-70
2022/04/06 07:07:52;;;;;;;0.10;0.10;;;9.60;1.00;12.80;88045.00;;;;4974847;28;20196;-70
2022/04/06 07:10:21;;;;;;;0.08;0.08;;;9.70;1.00;12.80;88045.00;;;;4974555;28;20213;-70
2022/04/06 07:12:49;;;;;;;0.10;0.10;;;9.60;1.00;12.80;88045.00;;;;4974980;28;20886;-71
2022/04/06 07:15:18;;;;;;;0.10;0.10;;;9.60;1.00;12.80;88045.00;;;;4980544;28;20658;-71
2022/04/06 07:17:51;;;;;;;0.10;0.10;;;9.60;1.00;12.80;88045.00;;;;4974370;28;20197;-70
2022/04/06 07:20:20;;;;;;;0.10;0.10;;;9.60;1.00;12.80;88045.00;;;;4974472;28;20204;-71
2022/04/06 07:22:48;;;;;;;0.10;0.10;;;9.60;1.00;12.80;88045.00;;;;4974490;28;20702;-70
2022/04/06 07:25:16;;;;;;;0.00;0.00;;;9.70;1.00;12.80;88045.00;;;;4974357;28;20197;-71
2022/04/06 07:27:44;;;;;;;0.00;0.00;;;9.70;1.00;12.80;88045.00;;;;4973241;28;20205;-71
2022/04/06 07:30:14;;;;;;;0.10;0.10;;;9.80;1.00;12.80;88045.00;;;;4987912;28;20581;-70
2022/04/06 07:32:45;;;;;;;0.10;0.10;;;9.80;1.00;12.80;88045.00;;;;4993961;28;20244;-71
2022/04/06 07:35:13;;;;;;;0.10;0.10;;;9.90;1.00;12.80;88045.00;;;;4993771;28;20193;-71
2022/04/06 07:37:44;;;;;;;0.10;0.10;;;10.00;1.00;12.80;88045.00;;;;4993723;28;20201;-70
2022/04/06 07:40:15;;;;;;;0.05;0.05;;;10.00;99.90;12.80;88045.00;;;;4993414;28;20256;-70
2022/04/06 07:42:43;;;;;;;0.10;0.10;;;10.00;99.90;12.80;88045.00;;;;4993465;28;20230;-70
2022/04/06 07:45:14;;;;;;;0.10;0.10;;;10.00;99.90;12.80;88045.00;;;;4993912;28;20198;-71
2022/04/06 07:47:42;;;;;;;0.10;0.10;;;10.00;99.90;12.80;88045.00;;;;4993628;28;20283;-71
2022/04/06 07:50:13;;;;;;;0.10;0.10;;;10.00;99.90;12.80;88045.00;;;;4992604;28;20200;-70
2022/04/06 07:52:43;;;;;;;0.10;0.10;;;10.00;99.90;12.80;88045.00;;;;4994545;28;20636;-70
2022/04/06 07:55:12;;;;;;;0.10;0.10;;;10.00;99.90;12.80;88045.00;;;;4993290;28;20197;-71
2022/04/06 07:57:41;;;;;;;0.10;0.10;;;10.00;99.90;12.80;88045.00;;;;4993056;28;20200;-70
2022/04/06 08:00:11;;;;;;;0.10;0.10;;;10.00;99.90;12.80;88045.00;;;;4993096;28;20202;-70
2022/04/06 08:02:40;;;;;;;0.10;0.10;;;10.00;99.90;12.80;88045.00;;;;4993109;28;20228;-71
2022/04/06 08:05:09;;;;;;;0.10;0.10;;;10.10;99.90;12.80;88045.00;;;;4993135;28;20243;-71
2022/04/06 08:07:43;;;;;;;0.10;0.10;;;10.10;99.90;12.80;88045.00;;;;4992981;28;20200;-71
2022/04/06 08:10:14;;;;;;;0.10;0.10;;;10.10;99.90;12.80;88045.00;;;;4992687;28;20196;-71
2022/04/06 08:12:43;;;;;;;0.05;0.05;;;10.10;99.90;12.80;88045.00;;;;4992904;28;20228;-71
2022/04/06 08:15:12;;;;;;;0.10;0.10;;;10.20;99.90;12.80;88045.00;;;;4993481;28;20181;-71
2022/04/06 08:17:44;;;;;;;0.10;0.10;;;10.30;99.90;12.80;88045.00;;;;4992756;28;20189;-71
2022/04/06 08:20:16;;;;;;;0.10;0.10;;;10.30;99.90;12.80;88045.00;;;;4992622;28;20198;-70
2022/04/06 08:22:47;;;;;;;0.10;0.10;;;10.30;10.40;12.80;88045.00;;;;4991608;28;20242;-71
2022/04/06 08:25:16;;;;;;;0.10;0.10;;;10.30;1.00;12.80;88045.00;;;;4992672;28;20207;-71
2022/04/06 08:28:08;;;;;;;0.10;0.10;;;10.40;1.00;12.80;88045.00;;;;4992011;28;20200;-70
2022/04/06 08:30:39;;;;;;;0.00;0.00;;;10.40;1.00;12.80;88045.00;;;;4992895;28;20192;-71
2022/04/06 08:33:10;;;;;;;0.10;0.10;;;10.50;1.00;12.80;88045.00;;;;4992362;28;20339;-71
2022/04/06 08:35:39;;;;;;;0.10;0.10;;;10.60;1.00;12.80;88045.00;;;;4992409;28;20574;-71
2022/04/06 08:38:12;;;;;;;0.10;0.10;;;10.60;1.00;12.80;88045.00;;;;4992556;28;20728;-71
2022/04/06 08:40:42;;;;;;;0.10;0.10;;;10.60;1.00;12.80;88045.00;;;;4992656;28;20243;-70
2022/04/06 08:43:11;;;;;;;0.10;0.10;;;10.50;1.00;12.80;88045.00;;;;4992680;28;20216;-70
2022/04/06 08:45:40;;;;;;;0.10;0.10;;;10.40;1.00;12.80;88045.00;;;;4992636;28;20203;-70
2022/04/06 08:48:11;;;;;;;0.10;0.10;;;10.50;1.00;12.80;88045.00;;;;4996791;28;20200;-70
2022/04/06 08:50:41;;;;;;;0.10;0.10;;;10.40;1.00;12.80;88045.00;;;;4997436;28;20224;-70
2022/04/06 08:53:10;;;;;;;0.00;0.00;;;10.40;1.00;12.80;88045.00;;;;4997150;28;20704;-70
2022/04/06 08:55:38;;;;;;;0.10;0.10;;;10.50;1.00;12.80;88045.00;;;;4996754;28;20196;-70
2022/04/06 08:58:07;;;;;;;0.10;0.10;;;10.40;1.00;12.80;88045.00;;;;4997192;28;20685;-70
2022/04/06 09:00:35;;;;;;;0.10;0.10;;;10.40;1.00;12.80;88045.00;;;;4985558;28;20197;-70
2022/04/06 09:03:03;;;;;;;0.10;0.10;;;10.40;1.00;12.80;88045.00;;;;4978203;28;20479;-70
2022/04/06 09:05:32;;;;;;;0.10;0.10;;;10.50;1.00;12.80;88045.00;;;;4976778;28;20256;-70
2022/04/06 09:08:03;;;;;;;0.00;0.00;;;10.60;1.00;12.80;88045.00;;;;4977089;28;20193;-70
2022/04/06 09:10:40;;;;;;;0.10;0.10;;;10.60;1.00;12.80;88045.00;;;;4977586;28;20196;-71
2022/04/06 09:13:10;;;;;;;0.10;0.10;;;10.70;1.00;12.80;88045.00;;;;4977132;28;20260;-71
2022/04/06 09:15:39;;;;;;;0.10;0.10;;;10.70;1.00;12.80;88045.00;;;;4976725;28;20200;-70
2022/04/06 09:18:07;;;;;;;0.10;0.10;;;10.80;1.00;12.80;88045.00;;;;4976412;28;20611;-71
2022/04/06 09:20:35;;;;;;;0.10;0.10;;;10.70;1.00;12.80;88045.00;;;;4986866;28;20200;-70
2022/04/06 09:23:06;;;;;;;0.10;0.10;;;10.80;1.00;12.80;88045.00;;;;4996136;28;20771;-70
2022/04/06 09:25:38;;;;;;;0.10;0.10;;;10.90;1.00;12.80;88045.00;;;;4996054;28;20199;-71
2022/04/06 09:28:09;;;;;;;0.10;0.10;;;11.00;1.00;12.80;88045.00;;;;4996110;28;20192;-70
2022/04/06 09:30:43;;;;;;;0.10;0.10;;;11.10;1.00;12.80;88045.00;;;;4996924;28;20825;-70
2022/04/06 09:33:18;;;;;;;0.00;0.00;;;11.30;1.00;12.80;88045.00;;;;4996613;28;20228;-70
2022/04/06 09:35:46;;;;;;;0.10;0.10;;;11.40;1.00;12.80;88045.00;;;;4996243;28;20196;-70
2022/04/06 09:38:19;;;;;;;0.10;0.10;;;11.50;1.00;12.80;88045.00;;;;4996119;28;20211;-70
2022/04/06 09:40:51;;;;;;;0.10;0.10;;;11.60;1.00;12.80;88045.00;;;;4996259;28;20188;-70
2022/04/06 09:43:26;;;;;;;0.00;0.00;;;11.70;1.00;12.80;88045.00;;;;4995766;28;20216;-70
2022/04/06 09:48:57;;;;;;;0.10;0.10;;;11.70;99.90;12.80;88045.00;;;;4995788;28;20192;-70
2022/04/06 09:51:25;;;;;;;0.10;0.10;;;11.90;46.00;12.80;88045.00;;;;4996100;28;20219;-70
2022/04/06 09:53:54;;;;;;;0.10;0.10;;;12.00;1.00;12.80;88045.00;;;;4995646;28;20244;-70
2022/04/06 09:56:24;;;;;;;0.10;0.10;;;11.80;1.00;12.80;88045.00;;;;4997082;28;20196;-70
2022/04/06 09:58:53;;;;;;;0.10;0.10;;;11.70;1.00;12.80;88045.00;;;;4998055;28;20279;-69
2022/04/06 10:01:21;;;;;;;0.00;0.00;;;11.70;1.00;12.80;88045.00;;;;4998881;28;20658;-69
2022/04/06 10:03:55;;;;;;;0.10;0.10;;;11.90;99.90;12.80;88045.00;;;;4996643;28;20228;-69
2022/04/06 10:06:23;;;;;;;0.10;0.10;;;11.90;99.90;12.80;88045.00;;;;4999167;28;20219;-69
2022/04/06 10:08:53;;;;;;;0.10;0.10;;;12.00;1.00;12.80;88045.00;;;;4999337;28;20196;-69
2022/04/06 10:11:23;;;;;;;0.10;0.10;;;11.90;99.90;12.80;88045.00;;;;5000507;28;20573;-70
2022/04/06 10:13:53;;;;;;;0.10;0.10;;;12.10;99.90;12.80;88045.00;;;;4997812;28;20235;-70
2022/04/06 10:16:28;;;;;;;0.10;0.10;;;12.50;1.00;12.80;88045.00;;;;4994989;28;20204;-70
2022/04/06 10:18:58;;;;;;;0.10;0.10;;;12.60;99.90;12.80;88045.00;;;;4995564;28;20561;-70
2022/04/06 10:21:39;;;;;;;0.00;0.00;;;12.70;1.00;12.80;88045.00;;;;4995145;28;20201;-70
2022/04/06 10:24:21;;;;;;;0.10;0.10;;;12.90;1.00;12.80;88045.00;;;;4995518;28;20314;-70
2022/04/06 10:27:06;;;;;;;0.05;0.05;;;13.00;1.00;12.80;88045.00;;;;4995387;28;20192;-71
2022/04/06 10:30:12;;;;;;;0.10;0.10;;;13.10;1.00;12.80;88045.00;;;;4996248;28;20206;-69
2022/04/06 10:32:42;;;;;;;0.00;0.00;;;13.00;1.00;12.80;88045.00;;;;4996625;28;20209;-69
2022/04/06 10:35:23;;;;;;;0.00;0.00;;;13.00;1.00;12.80;88045.00;;;;5001348;28;20203;-69
2022/04/06 10:38:14;;;;;;;0.10;0.10;;;13.20;99.90;12.80;88045.00;;;;5000401;28;20207;-69
2022/04/06 10:41:00;;;;;;;0.00;0.00;;;13.40;1.00;12.80;88045.00;;;;4998305;28;20203;-68
2022/04/06 10:43:51;;;;;;;0.00;0.00;;;13.60;9.40;12.80;88045.00;;;;4995847;28;20217;-69
2022/04/06 10:46:34;;;;;;;0.08;0.08;;;13.60;99.90;12.80;88045.00;;;;4995613;28;20193;-70
2022/04/06 10:49:17;;;;;;;0.00;0.00;;;13.30;1.00;12.80;88045.00;;;;4995664;28;20196;-70
2022/04/06 10:51:48;;;;;;;0.10;0.10;;;12.90;1.00;12.80;88045.00;;;;4993420;28;20204;-70
2022/04/06 10:54:42;;;;;;;0.10;0.10;;;12.80;99.90;12.80;88045.00;;;;4994699;28;20315;-70
2022/04/06 10:57:11;;;;;;;0.10;0.10;;;12.70;99.90;12.80;88045.00;;;;4994747;28;20231;-70
2022/04/06 10:59:40;;;;;;;0.00;0.00;;;12.80;1.00;12.80;88045.00;;;;4995095;28;20250;-70
2022/04/06 11:02:25;;;;;;;0.00;0.00;;;12.80;99.90;12.80;88045.00;;;;4990521;28;20214;-70
2022/04/06 11:04:54;;;;;;;0.08;0.08;;;12.90;1.00;12.80;88045.00;;;;4990400;28;20252;-70
2022/04/06 11:10:31;;;;;;;0.00;0.00;;;13.00;99.90;12.80;88045.00;;;;4993844;28;20207;-70
2022/04/06 11:13:03;;;;;;;0.10;0.10;;;13.10;1.00;12.80;88045.00;;;;4994080;28;20208;-70
2022/04/06 11:15:41;;;;;;;0.10;0.10;;;13.00;1.00;12.80;88045.00;;;;4994412;28;20280;-70
2022/04/06 11:18:44;;;;;;;0.10;0.10;;;12.90;99.90;12.80;88045.00;;;;4995957;28;20195;-70
2022/04/06 11:21:14;;;;;;;0.00;0.00;;;13.20;1.00;12.80;88045.00;;;;4992530;28;20204;-70
2022/04/06 11:23:43;;;;;;;0.08;0.08;;;13.20;1.00;12.80;88045.00;;;;4997581;28;20224;-70
2022/04/06 11:26:11;;;;;;;0.10;0.10;;;13.20;99.90;12.80;88045.00;;;;4997656;28;20189;-70
2022/04/06 11:28:39;;;;;;;0.05;0.05;;;13.30;99.90;12.80;88045.00;;;;4996180;28;20204;-70
2022/04/06 11:31:09;;;;;;;0.10;0.10;;;13.50;99.90;12.80;88045.00;;;;4996859;28;20609;-71